createdAt,value
2018-02-27T00:00:50.108Z,24.33
2018-02-27T00:03:18.048Z,30.97
2018-02-27T00:05:46.207Z,23.07
2018-02-27T00:08:14.347Z,23.37
2018-02-27T00:10:42.166Z,23.00
2018-02-27T00:13:10.047Z,26.47
2018-02-27T00:15:38.210Z,27.50
2018-02-27T00:18:06.307Z,22.07
2018-02-27T00:20:34.308Z,24.80
2018-02-27T00:23:02.309Z,27.60
2018-02-27T00:25:30.247Z,25.53
2018-02-27T00:27:58.355Z,19.07
2018-02-27T00:30:26.527Z,26.23
2018-02-27T00:32:54.967Z,25.07
2018-02-27T00:35:22.887Z,26.43
2018-02-27T00:37:51.549Z,21.93
2018-02-27T00:40:19.507Z,23.67
2018-02-27T00:42:47.709Z,22.30
2018-02-27T00:45:18.690Z,22.13
2018-02-27T00:47:46.929Z,21.20
2018-02-27T00:50:14.807Z,19.87
2018-02-27T00:55:14.807Z,23.97
2018-02-27T00:57:43.368Z,24.10
2018-02-27T01:00:11.595Z,18.13
2018-02-27T01:02:39.509Z,22.50
2018-02-27T01:05:07.329Z,23.70
2018-02-27T01:07:35.188Z,23.70
2018-02-27T01:10:03.731Z,24.50
2018-02-27T01:12:32.349Z,20.50
2018-02-27T01:15:00.207Z,24.33
2018-02-27T01:17:27.986Z,23.67
2018-02-27T01:19:55.805Z,26.00
2018-02-27T01:22:23.666Z,26.83
2018-02-27T01:24:51.608Z,21.67
2018-02-27T01:27:19.370Z,26.87
2018-02-27T01:29:47.106Z,24.37
2018-02-27T01:32:15.145Z,23.13
2018-02-27T01:34:43.485Z,24.73
2018-02-27T01:37:11.405Z,24.47
2018-02-27T01:39:39.365Z,23.03
2018-02-27T01:42:07.245Z,27.43
2018-02-27T01:44:35.245Z,23.97
2018-02-27T01:47:03.185Z,24.97
2018-02-27T01:49:31.426Z,30.33
2018-02-27T01:51:59.228Z,24.17
2018-02-27T01:54:27.085Z,25.30
2018-02-27T01:56:54.966Z,26.93
2018-02-27T01:59:23.105Z,23.80
2018-02-27T02:01:50.969Z,28.47
2018-02-27T02:04:18.848Z,20.33
2018-02-27T02:06:47.008Z,24.33
2018-02-27T02:09:15.587Z,26.87
2018-02-27T02:11:43.527Z,23.33
2018-02-27T02:14:12.214Z,28.17
2018-02-27T02:16:41.049Z,24.93
2018-02-27T02:19:08.987Z,28.67
2018-02-27T02:21:36.907Z,26.77
2018-02-27T02:24:05.488Z,32.40
2018-02-27T02:26:33.528Z,27.40
2018-02-27T02:29:01.408Z,27.13
2018-02-27T02:31:29.548Z,29.33
2018-02-27T02:33:58.048Z,25.27
2018-02-27T02:36:27.409Z,26.13
2018-02-27T02:38:55.288Z,25.83
2018-02-27T02:41:23.108Z,28.93
2018-02-27T02:43:51.068Z,27.93
2018-02-27T02:46:19.185Z,26.87
2018-02-27T02:48:49.168Z,26.37
2018-02-27T02:51:17.510Z,32.80
2018-02-27T02:53:45.829Z,26.63
2018-02-27T02:56:14.108Z,28.90
2018-02-27T02:58:41.828Z,26.43
2018-02-27T03:01:09.769Z,30.93
2018-02-27T03:03:37.570Z,26.53
2018-02-27T03:06:05.589Z,27.73
2018-02-27T03:08:33.330Z,27.03
2018-02-27T03:11:02.408Z,25.97
2018-02-27T03:13:30.467Z,29.80
2018-02-27T03:15:58.666Z,28.53
2018-02-27T03:18:26.531Z,30.37
2018-02-27T03:20:54.367Z,27.77
2018-02-27T03:23:22.526Z,29.33
2018-02-27T03:25:50.369Z,26.23
2018-02-27T03:28:18.126Z,29.43
2018-02-27T03:30:45.926Z,28.33
2018-02-27T03:33:14.205Z,29.03
2018-02-27T03:35:42.766Z,27.50
2018-02-27T03:38:10.705Z,25.73
2018-02-27T03:43:10.446Z,27.00
2018-02-27T03:45:38.266Z,27.80
2018-02-27T03:48:06.466Z,27.43
2018-02-27T03:50:34.406Z,31.13
2018-02-27T03:53:02.405Z,30.43
2018-02-27T03:55:30.207Z,29.97
2018-02-27T03:57:58.145Z,24.37
2018-02-27T04:00:26.791Z,30.83
2018-02-27T04:02:54.610Z,28.27
2018-02-27T04:05:22.892Z,28.87
2018-02-27T04:07:51.412Z,24.63
2018-02-27T04:10:19.494Z,27.90
2018-02-27T04:12:48.052Z,29.27
2018-02-27T04:15:15.890Z,25.60
2018-02-27T04:17:43.974Z,25.43
2018-02-27T04:20:13.328Z,25.97
2018-02-27T04:22:41.250Z,29.43
2018-02-27T04:25:09.110Z,28.93
2018-02-27T04:27:36.930Z,29.73
2018-02-27T04:30:04.972Z,29.23
2018-02-27T04:32:35.951Z,24.47
2018-02-27T04:35:04.010Z,27.73
2018-02-27T04:37:31.810Z,24.87
2018-02-27T04:40:00.031Z,26.50
2018-02-27T04:42:28.170Z,27.00
2018-02-27T04:44:56.390Z,29.60
2018-02-27T04:47:24.251Z,28.50
2018-02-27T04:49:52.090Z,25.43
2018-02-27T04:52:20.030Z,24.30
2018-02-27T04:54:47.911Z,25.20
2018-02-27T04:57:16.130Z,24.07
2018-02-27T04:59:44.651Z,27.20
2018-02-27T05:02:12.591Z,27.37
2018-02-27T05:04:40.431Z,28.30
2018-02-27T05:07:08.990Z,27.77
2018-02-27T05:09:37.892Z,27.50
2018-02-27T05:12:05.734Z,31.90
2018-02-27T05:14:34.171Z,28.70
2018-02-27T05:17:02.471Z,30.07
2018-02-27T05:19:31.091Z,25.60
2018-02-27T05:21:59.074Z,27.90
2018-02-27T05:24:28.050Z,26.20
2018-02-27T05:26:56.190Z,32.63
2018-02-27T05:29:24.210Z,30.57
2018-02-27T05:31:52.147Z,24.67
2018-02-27T05:34:20.447Z,30.50
2018-02-27T05:36:49.408Z,29.63
2018-02-27T05:39:17.347Z,28.70
2018-02-27T05:41:45.459Z,25.37
2018-02-27T05:44:13.327Z,29.63
2018-02-27T05:46:41.248Z,31.27
2018-02-27T05:49:09.407Z,30.93
2018-02-27T05:51:37.250Z,27.47
2018-02-27T05:54:05.087Z,29.70
2018-02-27T05:56:33.229Z,31.30
2018-02-27T05:59:01.087Z,34.37
2018-02-27T06:01:28.968Z,28.63
2018-02-27T06:03:56.727Z,27.60
2018-02-27T06:06:24.827Z,31.33
2018-02-27T06:08:52.888Z,31.47
2018-02-27T06:11:20.707Z,29.17
2018-02-27T06:13:48.866Z,33.10
2018-02-27T06:16:16.730Z,28.93
2018-02-27T06:18:45.628Z,28.30
2018-02-27T06:21:13.508Z,26.70
2018-02-27T06:23:42.248Z,25.87
2018-02-27T06:26:10.529Z,28.13
2018-02-27T06:28:38.387Z,27.70
2018-02-27T06:31:07.808Z,30.63
2018-02-27T06:33:36.367Z,29.40
2018-02-27T06:36:04.226Z,29.73
2018-02-27T06:38:32.757Z,30.17
2018-02-27T06:41:00.670Z,29.70
2018-02-27T06:43:28.633Z,34.40
2018-02-27T06:45:56.450Z,30.30
2018-02-27T06:48:24.970Z,30.03
2018-02-27T06:50:52.848Z,27.03
2018-02-27T06:53:20.809Z,30.83
2018-02-27T06:55:48.480Z,28.43
2018-02-27T06:58:16.294Z,27.93
2018-02-27T07:00:45.838Z,27.47
2018-02-27T07:03:14.866Z,31.07
2018-02-27T07:05:43.589Z,34.63
2018-02-27T07:08:11.889Z,32.90
2018-02-27T07:10:45.489Z,31.23
2018-02-27T07:13:13.432Z,31.97
2018-02-27T07:15:42.747Z,28.23
2018-02-27T07:18:10.567Z,32.20
2018-02-27T07:20:38.366Z,32.53
2018-02-27T07:23:06.207Z,28.77
2018-02-27T07:25:34.169Z,31.67
2018-02-27T07:28:02.652Z,31.27
2018-02-27T07:30:30.410Z,28.30
2018-02-27T07:32:58.108Z,30.83
2018-02-27T07:35:25.987Z,34.50
2018-02-27T07:37:54.447Z,29.00
2018-02-27T07:40:22.407Z,28.40
2018-02-27T07:45:22.752Z,30.73
2018-02-27T07:47:50.468Z,30.60
2018-02-27T07:50:18.225Z,33.33
2018-02-27T07:52:45.966Z,25.97
2018-02-27T07:55:13.734Z,28.47
2018-02-27T07:57:41.467Z,29.90
2018-02-27T08:00:09.126Z,32.83
2018-02-27T08:02:37.608Z,30.43
2018-02-27T08:05:06.071Z,30.30
2018-02-27T08:07:34.006Z,31.63
2018-02-27T08:10:01.759Z,30.80
2018-02-27T08:12:29.945Z,27.37
2018-02-27T08:17:30.148Z,37.77
2018-02-27T08:19:57.929Z,28.57
2018-02-27T08:22:26.860Z,33.13
2018-02-27T08:24:54.788Z,33.37
2018-02-27T08:27:22.608Z,30.83
2018-02-27T08:29:50.448Z,32.03
2018-02-27T08:32:18.188Z,32.00
2018-02-27T08:34:46.149Z,33.30
2018-02-27T08:37:14.250Z,30.23
2018-02-27T08:39:42.028Z,33.97
2018-02-27T08:42:10.249Z,34.73
2018-02-27T08:44:38.697Z,32.57
2018-02-27T08:47:06.888Z,30.97
2018-02-27T08:49:34.689Z,31.70
2018-02-27T08:52:02.729Z,30.80
2018-02-27T08:54:30.748Z,32.93
2018-02-27T08:56:58.529Z,29.10
2018-02-27T08:59:26.688Z,26.07
2018-02-27T09:01:54.839Z,31.70
2018-02-27T09:04:23.113Z,33.43
2018-02-27T09:06:50.930Z,31.13
2018-02-27T09:09:18.751Z,31.77
2018-02-27T09:11:46.811Z,32.90
2018-02-27T09:14:14.971Z,31.00
2018-02-27T09:16:42.950Z,30.73
2018-02-27T09:19:10.756Z,28.93
2018-02-27T09:21:38.630Z,34.87
2018-02-27T09:24:07.434Z,34.37
2018-02-27T09:26:35.309Z,30.33
2018-02-27T09:29:03.652Z,31.83
2018-02-27T09:31:31.492Z,29.60
2018-02-27T09:33:59.630Z,33.23
2018-02-27T09:36:28.311Z,27.67
2018-02-27T09:38:57.570Z,31.97
2018-02-27T09:41:25.330Z,32.20
2018-02-27T09:43:53.594Z,31.23
2018-02-27T09:46:21.490Z,34.47
2018-02-27T09:48:49.312Z,26.10
2018-02-27T09:51:17.464Z,30.60
2018-02-27T09:53:45.333Z,29.67
2018-02-27T09:56:14.250Z,31.63
2018-02-27T09:58:42.096Z,31.13
2018-02-27T10:01:10.051Z,34.80
2018-02-27T10:03:37.892Z,30.83
2018-02-27T10:06:05.731Z,29.70
2018-02-27T10:08:33.632Z,32.97
2018-02-27T10:11:01.775Z,34.03
2018-02-27T10:13:29.871Z,34.80
2018-02-27T10:15:57.811Z,34.60
2018-02-27T10:18:25.691Z,33.87
2018-02-27T10:20:55.352Z,31.37
2018-02-27T10:23:23.451Z,30.80
2018-02-27T10:25:51.251Z,32.63
2018-02-27T10:28:19.472Z,32.03
2018-02-27T10:30:47.829Z,30.90
2018-02-27T10:33:15.770Z,28.77
2018-02-27T10:35:43.570Z,27.33
2018-02-27T10:38:11.510Z,29.37
2018-02-27T10:40:39.458Z,29.27
2018-02-27T10:43:07.273Z,30.60
2018-02-27T10:45:35.173Z,31.50
2018-02-27T10:48:04.628Z,28.33
2018-02-27T10:50:32.474Z,28.87
2018-02-27T10:53:00.227Z,30.90
2018-02-27T10:55:28.398Z,31.10
2018-02-27T10:57:56.131Z,31.57
2018-02-27T11:00:29.527Z,28.80
2018-02-27T11:02:57.346Z,29.03
2018-02-27T11:05:25.929Z,27.97
2018-02-27T11:07:53.847Z,24.67
2018-02-27T11:10:21.706Z,28.87
2018-02-27T11:12:50.548Z,29.23
2018-02-27T11:15:18.652Z,27.20
2018-02-27T11:17:46.527Z,24.93
2018-02-27T11:20:14.466Z,26.83
2018-02-27T11:22:42.307Z,26.93
2018-02-27T11:25:11.148Z,28.70
2018-02-27T11:27:39.127Z,26.50
2018-02-27T11:30:08.008Z,29.77
2018-02-27T11:32:35.927Z,31.30
2018-02-27T11:35:03.767Z,31.27
2018-02-27T11:37:31.587Z,28.83
2018-02-27T11:40:01.148Z,27.23
2018-02-27T11:42:29.028Z,31.30
2018-02-27T11:44:57.147Z,31.77
2018-02-27T11:47:25.727Z,27.97
2018-02-27T11:49:53.607Z,32.37
2018-02-27T11:52:21.527Z,27.97
2018-02-27T11:54:49.667Z,27.67
2018-02-27T11:57:19.707Z,27.63
2018-02-27T11:59:48.492Z,27.97
2018-02-27T12:02:16.403Z,30.57
2018-02-27T12:04:44.464Z,31.97
2018-02-27T12:07:12.507Z,29.77
2018-02-27T12:09:40.387Z,31.97
2018-02-27T12:12:09.877Z,38.30
2018-02-27T12:17:09.726Z,32.40
2018-02-27T12:19:38.419Z,34.70
2018-02-27T12:22:07.308Z,31.07
2018-02-27T12:24:35.988Z,30.47
2018-02-27T12:27:04.167Z,38.17
2018-02-27T12:29:32.527Z,39.50
2018-02-27T12:32:01.630Z,46.33
2018-02-27T12:34:29.448Z,45.20
2018-02-27T12:36:57.567Z,46.07
2018-02-27T12:39:25.768Z,41.60
2018-02-27T12:41:53.683Z,44.83
2018-02-27T12:44:21.527Z,45.80
2018-02-27T12:46:49.487Z,48.50
2018-02-27T12:49:19.208Z,46.27
2018-02-27T12:51:47.250Z,47.30
2018-02-27T12:54:15.187Z,46.77
2018-02-27T12:56:43.886Z,46.20
2018-02-27T12:59:12.608Z,49.27
2018-02-27T13:01:40.453Z,49.60
2018-02-27T13:04:09.330Z,43.73
2018-02-27T13:06:37.810Z,46.07
2018-02-27T13:09:07.601Z,47.47
2018-02-27T13:11:35.447Z,47.97
2018-02-27T13:14:04.408Z,46.43
2018-02-27T13:16:32.227Z,50.43
2018-02-27T13:19:00.227Z,40.97
2018-02-27T13:21:28.247Z,50.40
2018-02-27T13:23:56.232Z,49.10
2018-02-27T13:28:56.088Z,40.07
2018-02-27T13:31:24.127Z,48.00
2018-02-27T13:33:52.287Z,48.07
2018-02-27T13:36:20.950Z,41.97
2018-02-27T13:38:49.208Z,46.13
2018-02-27T13:41:17.088Z,44.57
2018-02-27T13:43:45.207Z,46.47
2018-02-27T13:46:13.088Z,41.27
2018-02-27T13:48:45.760Z,48.87
2018-02-27T13:51:09.052Z,43.57
2018-02-27T13:53:37.252Z,44.20
2018-02-27T13:56:05.372Z,43.50
2018-02-27T13:58:33.273Z,40.10
2018-02-27T14:01:01.472Z,44.57
2018-02-27T14:03:29.572Z,44.27
2018-02-27T14:05:57.612Z,39.20
2018-02-27T14:08:25.571Z,38.70
2018-02-27T14:10:53.811Z,40.60
2018-02-27T14:13:23.716Z,43.43
2018-02-27T14:15:51.711Z,42.23
2018-02-27T14:18:20.392Z,40.47
2018-02-27T14:20:48.360Z,36.77
2018-02-27T14:23:16.508Z,40.53
2018-02-27T14:25:44.511Z,45.80
2018-02-27T14:28:13.188Z,39.97
2018-02-27T14:30:41.029Z,36.57
2018-02-27T14:33:08.848Z,39.80
2018-02-27T14:35:37.469Z,45.43
2018-02-27T14:38:05.328Z,47.23
2018-02-27T14:40:33.258Z,39.23
2018-02-27T14:43:01.148Z,39.80
2018-02-27T14:45:28.968Z,43.57
2018-02-27T14:47:57.148Z,43.00
2018-02-27T14:50:25.149Z,43.03
2018-02-27T14:52:53.269Z,42.53
2018-02-27T14:55:21.588Z,41.93
2018-02-27T14:57:50.289Z,36.13
2018-02-27T15:00:23.523Z,40.33
2018-02-27T15:02:51.915Z,40.00
2018-02-27T15:05:19.768Z,37.87
2018-02-27T15:07:47.826Z,36.57
2018-02-27T15:10:15.769Z,38.47
2018-02-27T15:12:44.446Z,36.37
2018-02-27T15:15:12.288Z,40.27
2018-02-27T15:17:40.406Z,34.80
2018-02-27T15:20:09.028Z,31.90
2018-02-27T15:22:36.767Z,38.10
2018-02-27T15:25:04.568Z,32.67
2018-02-27T15:27:32.367Z,34.17
2018-02-27T15:30:00.550Z,35.80
2018-02-27T15:32:28.789Z,32.13
2018-02-27T15:34:57.007Z,37.53
2018-02-27T15:37:24.868Z,33.97
2018-02-27T15:39:53.216Z,32.67
2018-02-27T15:42:21.227Z,30.70
2018-02-27T15:44:49.126Z,35.87
2018-02-27T15:47:17.512Z,39.53
2018-02-27T15:49:45.409Z,39.00
2018-02-27T15:52:13.307Z,38.50
2018-02-27T15:54:41.148Z,41.27
2018-02-27T15:57:08.968Z,36.17
2018-02-27T15:59:37.047Z,36.13
2018-02-27T16:02:05.095Z,37.73
2018-02-27T16:04:32.953Z,42.50
2018-02-27T16:07:01.533Z,36.30
2018-02-27T16:09:29.574Z,45.80
2018-02-27T16:11:57.798Z,40.53
2018-02-27T16:14:25.953Z,43.73
2018-02-27T16:16:54.013Z,43.37
2018-02-27T16:19:22.933Z,38.10
2018-02-27T16:21:50.713Z,37.47
2018-02-27T16:24:18.613Z,38.57
2018-02-27T16:26:46.514Z,37.90
2018-02-27T16:29:14.333Z,40.73
2018-02-27T16:31:42.493Z,40.87
2018-02-27T16:34:10.620Z,35.27
2018-02-27T16:36:38.452Z,40.03
2018-02-27T16:39:06.434Z,41.97
2018-02-27T16:41:34.272Z,38.20
2018-02-27T16:44:04.272Z,44.57
2018-02-27T16:46:33.371Z,39.40
2018-02-27T16:49:01.296Z,41.07
2018-02-27T16:51:29.655Z,43.63
2018-02-27T16:53:57.751Z,40.07
2018-02-27T16:56:25.894Z,40.43
2018-02-27T16:58:53.932Z,43.30
2018-02-27T17:01:21.976Z,43.43
2018-02-27T17:03:50.107Z,43.93
2018-02-27T17:06:17.926Z,44.83
2018-02-27T17:08:46.086Z,41.87
2018-02-27T17:11:13.886Z,46.33
2018-02-27T17:13:41.786Z,42.70
2018-02-27T17:16:09.907Z,41.23
2018-02-27T17:18:39.047Z,42.37
2018-02-27T17:21:06.885Z,37.50
2018-02-27T17:23:34.833Z,40.03
2018-02-27T17:28:35.607Z,48.83
2018-02-27T17:31:03.447Z,45.83
2018-02-27T17:33:32.067Z,42.63
2018-02-27T17:36:00.227Z,43.67
2018-02-27T17:38:28.066Z,40.07
2018-02-27T17:40:56.790Z,40.40
2018-02-27T17:43:24.656Z,40.33
2018-02-27T17:45:53.246Z,39.50
2018-02-27T17:50:53.406Z,42.77
2018-02-27T17:53:21.466Z,40.80
2018-02-27T17:55:49.787Z,39.93
2018-02-27T17:58:17.646Z,43.23
2018-02-27T18:00:45.525Z,40.07
2018-02-27T18:03:13.247Z,47.63
2018-02-27T18:05:41.267Z,41.10
2018-02-27T18:08:09.147Z,44.37
2018-02-27T18:10:37.886Z,48.33
2018-02-27T18:13:06.146Z,48.27
2018-02-27T18:15:35.908Z,49.70
2018-02-27T18:18:04.149Z,44.03
2018-02-27T18:20:32.287Z,46.20
2018-02-27T18:23:00.229Z,50.33
2018-02-27T18:25:28.129Z,47.03
2018-02-27T18:27:56.068Z,48.03
2018-02-27T18:30:23.946Z,57.40
2018-02-27T18:32:51.889Z,55.20
2018-02-27T18:35:19.866Z,52.20
2018-02-27T18:37:48.247Z,54.30
2018-02-27T18:40:16.147Z,53.37
2018-02-27T18:42:44.047Z,53.30
2018-02-27T18:45:11.933Z,57.03
2018-02-27T18:47:39.866Z,56.97
2018-02-27T18:50:07.738Z,58.80
2018-02-27T18:52:35.767Z,59.20
2018-02-27T18:55:03.547Z,57.17
2018-02-27T18:57:31.426Z,52.37
2018-02-27T18:59:59.246Z,47.77
2018-02-27T19:02:27.450Z,52.77
2018-02-27T19:04:55.969Z,51.90
2018-02-27T19:07:23.870Z,52.97
2018-02-27T19:09:51.649Z,56.43
2018-02-27T19:12:20.093Z,54.67
2018-02-27T19:14:48.030Z,56.70
2018-02-27T19:17:15.830Z,53.63
2018-02-27T19:19:46.390Z,61.03
2018-02-27T19:22:14.450Z,67.73
2018-02-27T19:24:43.231Z,65.13
2018-02-27T19:27:11.189Z,101.13
2018-02-27T19:29:39.769Z,58.93
2018-02-27T19:32:07.810Z,52.97
2018-02-27T19:34:35.930Z,64.57
2018-02-27T19:37:04.833Z,58.63
2018-02-27T19:42:05.971Z,61.40
2018-02-27T19:44:34.270Z,73.97
2018-02-27T19:47:02.094Z,69.70
2018-02-27T19:49:30.030Z,59.60
2018-02-27T19:51:57.912Z,57.53
2018-02-27T19:54:25.911Z,58.67
2018-02-27T19:56:53.937Z,58.87
2018-02-27T19:59:23.883Z,58.83
2018-02-27T20:01:51.735Z,58.07
2018-02-27T20:04:19.687Z,60.53
2018-02-27T20:06:47.868Z,54.07
2018-02-27T20:09:16.107Z,59.90
2018-02-27T20:11:44.370Z,55.27
2018-02-27T20:14:18.193Z,57.00
2018-02-27T20:16:46.330Z,59.07
2018-02-27T20:19:14.526Z,67.43
2018-02-27T20:21:43.249Z,68.40
2018-02-27T20:24:19.273Z,72.67
2018-02-27T20:26:47.332Z,64.47
2018-02-27T20:29:21.010Z,72.77
2018-02-27T20:31:49.331Z,79.07
2018-02-27T20:34:17.172Z,66.67
2018-02-27T20:36:45.693Z,68.23
2018-02-27T20:39:19.682Z,69.30
2018-02-27T20:41:47.771Z,62.93
2018-02-27T20:44:16.672Z,62.53
2018-02-27T20:46:44.732Z,63.50
2018-02-27T20:49:12.911Z,60.50
2018-02-27T20:51:40.991Z,61.40
2018-02-27T20:54:09.335Z,62.53
2018-02-27T20:56:37.311Z,56.33
2018-02-27T20:59:05.252Z,58.87
2018-02-27T21:01:33.192Z,56.03
2018-02-27T21:04:01.312Z,62.37
2018-02-27T21:06:29.392Z,88.60
2018-02-27T21:08:58.351Z,79.30
2018-02-27T21:11:26.371Z,58.30
2018-02-27T21:13:54.512Z,83.57
2018-02-27T21:16:25.229Z,78.60
2018-02-27T21:18:53.408Z,73.43
2018-02-27T21:21:41.447Z,77.77
2018-02-27T21:24:09.242Z,67.87
2018-02-27T21:26:37.233Z,63.47
2018-02-27T21:29:05.026Z,67.63
2018-02-27T21:31:32.834Z,63.60
2018-02-27T21:34:00.833Z,55.73
2018-02-27T21:36:28.666Z,55.97
2018-02-27T21:38:56.602Z,59.70
2018-02-27T21:41:25.329Z,51.93
2018-02-27T21:43:53.578Z,59.87
2018-02-27T21:46:21.695Z,53.97
2018-02-27T21:48:50.321Z,53.07
2018-02-27T21:51:18.493Z,53.90
2018-02-27T21:53:46.553Z,50.53
2018-02-27T21:56:14.490Z,58.07
2018-02-27T21:58:42.928Z,54.77
2018-02-27T22:01:10.969Z,56.40
2018-02-27T22:03:39.803Z,57.50
2018-02-27T22:06:07.933Z,57.67
2018-02-27T22:08:36.151Z,61.70
2018-02-27T22:11:04.034Z,58.27
2018-02-27T22:13:32.052Z,66.60
2018-02-27T22:16:00.035Z,59.23
2018-02-27T22:18:27.911Z,56.23
2018-02-27T22:20:56.095Z,57.27
2018-02-27T22:23:24.112Z,54.87
2018-02-27T22:25:52.191Z,64.17
2018-02-27T22:28:20.131Z,59.30
2018-02-27T22:30:47.991Z,61.97
2018-02-27T22:33:15.887Z,57.10
2018-02-27T22:35:44.226Z,65.03
2018-02-27T22:38:12.266Z,60.47
2018-02-27T22:40:40.506Z,63.00
2018-02-27T22:43:08.446Z,58.17
2018-02-27T22:45:36.507Z,59.03
2018-02-27T22:48:04.725Z,60.43
2018-02-27T22:50:32.610Z,59.03
2018-02-27T22:53:00.487Z,61.70
2018-02-27T22:55:28.365Z,65.43
2018-02-27T22:57:56.206Z,73.73
2018-02-27T23:03:19.551Z,61.53
2018-02-27T23:05:47.494Z,55.70
2018-02-27T23:08:15.412Z,55.07
2018-02-27T23:10:43.272Z,52.87
2018-02-27T23:13:11.615Z,57.83
2018-02-27T23:15:39.813Z,51.40
2018-02-27T23:18:07.731Z,47.23
2018-02-27T23:20:35.771Z,49.13
2018-02-27T23:23:03.642Z,53.37
2018-02-27T23:25:40.671Z,57.93
2018-02-27T23:28:10.850Z,54.37
2018-02-27T23:30:40.510Z,51.17
2018-02-27T23:33:11.630Z,44.80
2018-02-27T23:35:39.730Z,58.40
2018-02-27T23:38:07.611Z,56.50
2018-02-27T23:40:35.550Z,50.13
2018-02-27T23:43:03.390Z,53.93
2018-02-27T23:45:31.270Z,55.50
2018-02-27T23:47:59.409Z,51.27
2018-02-27T23:50:27.150Z,61.07
2018-02-27T23:52:55.210Z,60.27
2018-02-27T23:55:24.129Z,49.53
2018-02-27T23:57:52.049Z,62.33
